KMTN/MTN METAR and TAF weather

Enter ICAO airport designator
Station Type Date Time Source
KMTN METAR 2019/12/14 18:54 UTC NOAA

KMTN 141854Z 25006KT 10SM -RA BKN008 BKN028 OVC050 10/10 A2933


Station Type Date Time Source
KMTN Decoded METAR 2019/12/14 18:54 UTC NOAA

Baltimore / Martin, MD, United States (KMTN) 39-20N 076-25W
Dec 14, 2019 - 01:54 PM EST / 2019.12.14 1854 UTC
Wind: from the WSW (250 degrees) at 7 MPH (6 KT):0
Visibility: 10 mile(s):0
Sky conditions: overcast
Weather: light rain
Temperature: 50 F (10 C)
Dew Point: 50 F (10 C)
Relative Humidity: 100%
Pressure (altimeter): 29.33 in. Hg (993 hPa)
ob: KMTN 141854Z 25006KT 10SM -RA BKN008 BKN028 OVC050 10/10 A2933
cycle: 19

Station Type Date Time Source
KMTN TAF 2019/12/14 18:28 UTC NOAA

TAF KMTN 141726Z 1418/1518 00000KT 2SM BR OVC003
FM141900 22009KT 2SM BR OVC008
FM142000 24011KT 4SM BR OVC020
FM142100 25012KT P6SM OVC045
FM142300 26014G21KT P6SM BKN060
FM150700 27011KT P6SM SCT200

Example: see airport list